createdAt,value
2023-02-04T00:01:06.891Z,99367.53
2023-02-04T00:03:33.460Z,99365.06
2023-02-04T00:06:00.006Z,99364.84
2023-02-04T00:08:26.543Z,99366.75
2023-02-04T00:10:53.046Z,99379.34
2023-02-04T00:13:19.587Z,99378.28
2023-02-04T00:15:46.367Z,99373.34
2023-02-04T00:18:12.870Z,99370.84
2023-02-04T00:20:39.361Z,99372.22
2023-02-04T00:23:05.947Z,99361.28
2023-02-04T00:25:32.420Z,99366.28
2023-02-04T00:27:58.898Z,99375.84
2023-02-04T00:30:25.393Z,99378.84
2023-02-04T00:32:54.717Z,99380.47
2023-02-04T00:35:21.735Z,99376.91
2023-02-04T00:37:48.187Z,99375.25
2023-02-04T00:40:14.679Z,99377.94
2023-02-04T00:42:41.171Z,99382.88
2023-02-04T00:45:08.240Z,99379.81
2023-02-04T00:47:34.772Z,99388.66
2023-02-04T00:50:01.257Z,99389.50
2023-02-04T00:52:27.753Z,99388.94
2023-02-04T00:54:54.227Z,99397.47
2023-02-04T00:57:20.688Z,99409.00
2023-02-04T00:59:47.145Z,99403.44
2023-02-04T01:02:13.854Z,99413.91
2023-02-04T01:04:40.332Z,99418.84
2023-02-04T01:07:07.140Z,99420.78
2023-02-04T01:09:33.922Z,99425.50
2023-02-04T01:12:00.391Z,99424.69
2023-02-04T01:14:26.902Z,99434.84
2023-02-04T01:16:53.400Z,99429.63
2023-02-04T01:19:20.989Z,99435.41
2023-02-04T01:21:47.527Z,99441.72
2023-02-04T01:24:13.979Z,99445.78
2023-02-04T01:26:40.508Z,99448.84
2023-02-04T01:29:07.289Z,99457.13
2023-02-04T01:31:34.376Z,99464.75
2023-02-04T01:34:03.723Z,99482.91
2023-02-04T01:36:30.182Z,99486.75
2023-02-04T01:38:56.709Z,99504.94
2023-02-04T01:41:23.190Z,99511.50
2023-02-04T01:43:49.660Z,99510.44
2023-02-04T01:46:16.157Z,99511.28
2023-02-04T01:48:42.706Z,99521.75
2023-02-04T01:51:11.264Z,99521.25
2023-02-04T01:53:38.003Z,99527.81
2023-02-04T01:56:31.129Z,99521.25
2023-02-04T01:58:57.689Z,99519.69
2023-02-04T02:01:56.534Z,99515.03
2023-02-04T02:04:30.694Z,99511.72
2023-02-04T02:06:58.862Z,99511.44
2023-02-04T02:09:26.663Z,99518.03
2023-02-04T02:11:53.604Z,99513.09
2023-02-04T02:14:20.072Z,99526.28
2023-02-04T02:16:46.908Z,99520.53
2023-02-04T02:19:16.799Z,99533.97
2023-02-04T02:21:50.137Z,99530.41
2023-02-04T02:24:27.811Z,99542.78
2023-02-04T02:26:54.656Z,99545.00
2023-02-04T02:29:21.125Z,99554.03
2023-02-04T02:31:47.748Z,99554.59
2023-02-04T02:34:14.360Z,99561.78
2023-02-04T02:36:40.893Z,99573.28
2023-02-04T02:39:07.363Z,99565.31
2023-02-04T02:41:35.215Z,99572.75
2023-02-04T02:44:02.239Z,99586.50
2023-02-04T02:46:28.731Z,99594.44
2023-02-04T02:48:55.216Z,99594.19
2023-02-04T02:51:21.672Z,99591.16
2023-02-04T02:53:50.225Z,99592.81
2023-02-04T02:56:18.521Z,99599.13
2023-02-04T02:58:45.318Z,99594.72
2023-02-04T03:01:12.154Z,99592.81
2023-02-04T03:03:40.563Z,99600.75
2023-02-04T03:06:09.787Z,99610.38
2023-02-04T03:08:36.261Z,99612.31
2023-02-04T03:11:02.712Z,99610.38
2023-02-04T03:13:29.190Z,99618.06
2023-02-04T03:15:55.744Z,99604.88
2023-02-04T03:18:22.249Z,99608.19
2023-02-04T03:20:48.920Z,99620.00
2023-02-04T03:23:15.711Z,99606.28
2023-02-04T03:25:42.177Z,99606.03
2023-02-04T03:28:09.022Z,99615.34
2023-02-04T03:30:35.525Z,99617.53
2023-02-04T03:33:02.004Z,99629.63
2023-02-04T03:35:28.503Z,99636.47
2023-02-04T03:37:55.175Z,99638.94
2023-02-04T03:40:21.948Z,99650.75
2023-02-04T03:42:48.433Z,99658.72
2023-02-04T03:45:14.956Z,99659.78
2023-02-04T03:47:41.424Z,99661.44
2023-02-04T03:50:08.111Z,99665.00
2023-02-04T03:52:34.598Z,99676.56
2023-02-04T03:55:01.076Z,99668.88
2023-02-04T03:57:27.979Z,99674.91
2023-02-04T03:59:54.725Z,99675.19
2023-02-04T04:02:21.193Z,99683.13
2023-02-04T04:04:47.690Z,99694.41
2023-02-04T04:07:14.176Z,99698.78
2023-02-04T04:09:40.655Z,99710.59
2023-02-04T04:12:07.123Z,99705.91
2023-02-04T04:14:33.621Z,99708.38
2023-02-04T04:17:00.116Z,99719.38
2023-02-04T04:19:26.590Z,99724.84
2023-02-04T04:21:53.318Z,99725.66
2023-02-04T04:24:19.779Z,99728.41
2023-02-04T04:26:46.294Z,99732.25
2023-02-04T04:29:12.794Z,99745.97
2023-02-04T04:31:39.323Z,99749.50
2023-02-04T04:34:05.909Z,99754.47
2023-02-04T04:36:32.625Z,99767.34
2023-02-04T04:38:59.712Z,99763.78
2023-02-04T04:41:26.211Z,99776.97
2023-02-04T04:43:52.707Z,99776.13
2023-02-04T04:46:19.200Z,99781.63
2023-02-04T04:48:45.704Z,99776.09
2023-02-04T04:51:12.165Z,99769.75
2023-02-04T04:53:38.629Z,99774.47
2023-02-04T04:56:05.178Z,99776.38
2023-02-04T04:58:31.654Z,99770.09
2023-02-04T05:00:58.201Z,99776.06
2023-02-04T05:03:24.703Z,99783.78
2023-02-04T05:05:51.169Z,99786.69
2023-02-04T05:08:19.313Z,99796.00
2023-02-04T05:10:45.788Z,99807.63
2023-02-04T05:13:12.356Z,99798.53
2023-02-04T05:15:38.980Z,99809.78
2023-02-04T05:18:05.479Z,99817.16
2023-02-04T05:20:32.371Z,99817.44
2023-02-04T05:23:01.908Z,99822.09
2023-02-04T05:25:29.135Z,99823.72
2023-02-04T05:27:55.735Z,99822.28
2023-02-04T05:30:22.341Z,99819.59
2023-02-04T05:32:48.857Z,99812.69
2023-02-04T05:35:15.324Z,99817.94
2023-02-04T05:37:41.787Z,99824.00
2023-02-04T05:40:08.663Z,99827.31
2023-02-04T05:42:35.126Z,99822.25
2023-02-04T05:45:01.590Z,99823.00
2023-02-04T05:47:28.059Z,99825.78
2023-02-04T05:49:54.634Z,99839.41
2023-02-04T05:52:21.246Z,99853.09
2023-02-04T05:54:47.862Z,99855.97
2023-02-04T05:57:14.363Z,99866.97
2023-02-04T05:59:40.894Z,99878.50
2023-02-04T06:02:07.349Z,99886.16
2023-02-04T06:04:33.893Z,99886.84
2023-02-04T06:07:00.762Z,99887.59
2023-02-04T06:09:27.262Z,99895.31
2023-02-04T06:11:53.738Z,99896.66
2023-02-04T06:14:20.206Z,99890.41
2023-02-04T06:16:46.699Z,99896.97
2023-02-04T06:19:14.012Z,99895.88
2023-02-04T06:21:40.467Z,99902.19
2023-02-04T06:24:06.975Z,99898.63
2023-02-04T06:26:33.485Z,99899.66
2023-02-04T06:29:02.712Z,99894.16
2023-02-04T06:31:29.288Z,99897.47
2023-02-04T06:33:55.844Z,99892.78
2023-02-04T06:36:22.310Z,99905.09
2023-02-04T06:38:48.793Z,99906.75
2023-02-04T06:41:15.264Z,99901.25
2023-02-04T06:43:41.779Z,99902.84
2023-02-04T06:46:08.257Z,99904.19
2023-02-04T06:48:34.785Z,99918.72
2023-02-04T06:51:01.583Z,99916.75
2023-02-04T06:53:28.617Z,99915.91
2023-02-04T06:55:55.088Z,99929.25
2023-02-04T06:58:21.570Z,99932.28
2023-02-04T07:00:48.284Z,99936.38
2023-02-04T07:03:14.852Z,99936.59
2023-02-04T07:05:41.412Z,99931.25
2023-02-04T07:08:07.890Z,99936.72
2023-02-04T07:10:34.665Z,99940.19
2023-02-04T07:13:01.436Z,99943.69
2023-02-04T07:15:27.980Z,99943.63
2023-02-04T07:17:54.506Z,99951.25
2023-02-04T07:20:20.984Z,99957.97
2023-02-04T07:22:47.450Z,99954.72
2023-02-04T07:25:15.019Z,99957.91
2023-02-04T07:27:41.490Z,99964.84
2023-02-04T07:30:09.559Z,99971.91
2023-02-04T07:32:36.035Z,99967.41
2023-02-04T07:35:02.524Z,99975.16
2023-02-04T07:37:29.063Z,99976.56
2023-02-04T07:39:55.568Z,99976.00
2023-02-04T07:42:22.048Z,99976.06
2023-02-04T07:44:48.795Z,99981.78
2023-02-04T07:47:15.259Z,99991.91
2023-02-04T07:49:41.897Z,99997.63
2023-02-04T07:52:09.599Z,99998.84
2023-02-04T07:54:36.072Z,100008.84
2023-02-04T07:57:02.527Z,100005.97
2023-02-04T07:59:28.997Z,100006.13
2023-02-04T08:01:55.566Z,100006.09
2023-02-04T08:04:22.130Z,100019.53
2023-02-04T08:06:48.596Z,100007.97
2023-02-04T08:09:15.071Z,100011.53
2023-02-04T08:11:41.702Z,100011.72
2023-02-04T08:14:08.196Z,100007.31
2023-02-04T08:16:34.662Z,100005.88
2023-02-04T08:19:01.302Z,100019.16
2023-02-04T08:21:27.751Z,100022.69
2023-02-04T08:23:54.216Z,100024.47
2023-02-04T08:26:20.765Z,100031.34
2023-02-04T08:28:47.547Z,100029.47
2023-02-04T08:31:14.096Z,100027.06
2023-02-04T08:33:40.650Z,100033.66
2023-02-04T08:36:07.662Z,100033.25
2023-02-04T08:38:34.166Z,100024.25
2023-02-04T08:41:00.800Z,100030.34
2023-02-04T08:43:27.266Z,100033.09
2023-02-04T08:45:53.773Z,100041.19
2023-02-04T08:48:20.235Z,100035.06
2023-02-04T08:50:46.686Z,100031.94
2023-02-04T08:53:13.196Z,100041.09
2023-02-04T08:55:39.687Z,100046.34
2023-02-04T08:58:06.153Z,100049.06
2023-02-04T09:00:33.179Z,100044.59
2023-02-04T09:02:59.914Z,100056.28
2023-02-04T09:05:26.398Z,100054.97
2023-02-04T09:07:52.867Z,100054.69
2023-02-04T09:10:19.529Z,100056.88
2023-02-04T09:12:46.095Z,100056.47
2023-02-04T09:15:12.678Z,100069.53
2023-02-04T09:17:42.423Z,100084.97
2023-02-04T09:20:13.313Z,100086.00
2023-02-04T09:22:39.902Z,100098.66
2023-02-04T09:25:06.756Z,100088.75
2023-02-04T09:27:33.252Z,100093.94
2023-02-04T09:30:00.067Z,100096.16
2023-02-04T09:32:26.546Z,100105.22
2023-02-04T09:34:53.291Z,100101.47
2023-02-04T09:37:19.766Z,100106.25
2023-02-04T09:39:46.254Z,100099.78
2023-02-04T09:42:14.296Z,100110.25
2023-02-04T09:44:40.852Z,100107.63
2023-02-04T09:47:09.814Z,100101.41
2023-02-04T09:49:36.311Z,100108.38
2023-02-04T09:52:03.054Z,100105.88
2023-02-04T09:54:29.548Z,100110.09
2023-02-04T09:56:57.410Z,100116.47
2023-02-04T09:59:24.240Z,100113.03
2023-02-04T10:01:59.758Z,100115.94
2023-02-04T10:04:26.251Z,100128.69
2023-02-04T10:06:52.724Z,100136.72
2023-02-04T10:09:19.193Z,100144.28
2023-02-04T10:11:47.063Z,100150.72
2023-02-04T10:14:15.407Z,100143.47
2023-02-04T10:16:43.489Z,100152.59
2023-02-04T10:19:15.828Z,100133.34
2023-02-04T10:21:43.954Z,100146.44
2023-02-04T10:24:21.296Z,100146.94
2023-02-04T10:26:47.807Z,100149.94
2023-02-04T10:29:18.961Z,100161.22
2023-02-04T10:31:47.053Z,100154.03
2023-02-04T10:34:24.075Z,100155.69
2023-02-04T10:36:52.359Z,100156.81
2023-02-04T10:39:26.541Z,100155.84
2023-02-04T10:41:54.698Z,100151.75
2023-02-04T10:44:32.497Z,100148.63
2023-02-04T10:47:03.438Z,100149.53
2023-02-04T10:49:30.030Z,100147.44
2023-02-04T10:51:57.852Z,100135.25
2023-02-04T10:54:37.764Z,100150.31
2023-02-04T10:57:11.146Z,100151.03
2023-02-04T10:59:37.643Z,100149.19
2023-02-04T11:02:25.777Z,100142.59
2023-02-04T11:04:52.591Z,100135.75
2023-02-04T11:07:19.621Z,100142.31
2023-02-04T11:09:47.589Z,100145.44
2023-02-04T11:12:42.643Z,100149.31
2023-02-04T11:15:41.619Z,100137.75
2023-02-04T11:18:10.111Z,100143.25
2023-02-04T11:20:39.793Z,100139.69
2023-02-04T11:23:34.181Z,100148.19
2023-02-04T11:26:13.246Z,100153.41
2023-02-04T11:28:40.639Z,100151.44
2023-02-04T11:31:33.833Z,100144.59
2023-02-04T11:34:26.282Z,100158.66
2023-02-04T11:37:01.768Z,100155.38
2023-02-04T11:39:32.029Z,100160.63
2023-02-04T11:42:01.573Z,100148.34
2023-02-04T11:44:28.117Z,100156.03
2023-02-04T11:46:58.440Z,100143.38
2023-02-04T11:49:25.996Z,100159.72
2023-02-04T11:52:03.388Z,100144.91
2023-02-04T11:54:29.861Z,100138.81
2023-02-04T11:56:59.430Z,100153.72
2023-02-04T11:59:25.909Z,100153.72
2023-02-04T12:01:52.421Z,100158.97
2023-02-04T12:04:23.949Z,100144.88
2023-02-04T12:07:03.366Z,100149.00
2023-02-04T12:09:30.797Z,100156.44
2023-02-04T12:12:01.825Z,100156.16
2023-02-04T12:14:35.516Z,100142.66
2023-02-04T12:17:12.267Z,100157.84
2023-02-04T12:19:38.739Z,100162.72
2023-02-04T12:22:05.210Z,100137.09
2023-02-04T12:24:31.703Z,100147.50
2023-02-04T12:26:58.170Z,100148.44
2023-02-04T12:29:24.633Z,100143.03
2023-02-04T12:31:51.279Z,100136.44
2023-02-04T12:34:17.860Z,100147.06
2023-02-04T12:36:44.773Z,100140.88
2023-02-04T12:39:11.229Z,100157.41
2023-02-04T12:41:37.711Z,100159.34
2023-02-04T12:44:04.479Z,100156.31
2023-02-04T12:46:31.009Z,100154.66
2023-02-04T12:48:57.794Z,100156.34
2023-02-04T12:51:24.280Z,100152.56
2023-02-04T12:53:50.796Z,100164.09
2023-02-04T12:56:20.455Z,100156.72
2023-02-04T12:58:46.926Z,100166.38
2023-02-04T13:01:13.420Z,100158.91
2023-02-04T13:03:39.929Z,100168.81
2023-02-04T13:06:06.446Z,100159.19
2023-02-04T13:08:32.923Z,100169.97
2023-02-04T13:10:59.396Z,100170.50
2023-02-04T13:13:25.896Z,100181.00
2023-02-04T13:15:52.423Z,100173.25
2023-02-04T13:18:18.882Z,100177.66
2023-02-04T13:20:46.258Z,100174.63
2023-02-04T13:23:13.139Z,100182.06
2023-02-04T13:25:39.630Z,100182.34
2023-02-04T13:28:06.106Z,100186.22
2023-02-04T13:30:32.932Z,100184.56
2023-02-04T13:32:59.622Z,100191.72
2023-02-04T13:35:26.131Z,100185.13
2023-02-04T13:37:52.606Z,100192.84
2023-02-04T13:40:19.089Z,100188.41
2023-02-04T13:42:45.640Z,100190.06
2023-02-04T13:45:12.752Z,100183.50
2023-02-04T13:47:39.673Z,100179.34
2023-02-04T13:50:06.698Z,100191.19
2023-02-04T13:52:34.397Z,100195.06
2023-02-04T13:55:01.133Z,100191.19
2023-02-04T13:57:27.618Z,100198.63
2023-02-04T13:59:54.374Z,100201.09
2023-02-04T14:02:21.262Z,100203.84
2023-02-04T14:04:47.773Z,100201.09
2023-02-04T14:07:14.785Z,100189.47
2023-02-04T14:09:41.286Z,100196.69
2023-02-04T14:12:08.038Z,100197.78
2023-02-04T14:14:34.497Z,100186.75
2023-02-04T14:17:00.965Z,100182.59
2023-02-04T14:19:28.507Z,100188.41
2023-02-04T14:21:55.045Z,100195.03
2023-02-04T14:24:21.990Z,100181.28
2023-02-04T14:26:48.527Z,100177.94
2023-02-04T14:29:15.038Z,100178.75
2023-02-04T14:31:41.583Z,100185.66
2023-02-04T14:34:08.047Z,100189.50
2023-02-04T14:36:34.794Z,100180.41
2023-02-04T14:39:01.544Z,100189.78
2023-02-04T14:41:30.088Z,100191.97
2023-02-04T14:43:56.915Z,100188.41
2023-02-04T14:46:23.823Z,100193.06
2023-02-04T14:48:52.069Z,100197.75
2023-02-04T14:51:19.567Z,100200.50
2023-02-04T14:53:48.631Z,100199.66
2023-02-04T14:56:15.938Z,100188.34
2023-02-04T14:58:42.429Z,100208.34
2023-02-04T15:01:08.916Z,100204.78
2023-02-04T15:03:35.400Z,100206.97
2023-02-04T15:06:01.863Z,100206.91
2023-02-04T15:08:28.364Z,100208.78
2023-02-04T15:10:54.843Z,100216.44
2023-02-04T15:13:21.518Z,100227.28
2023-02-04T15:15:47.994Z,100228.00
2023-02-04T15:18:14.721Z,100226.19
2023-02-04T15:20:41.177Z,100231.63
2023-02-04T15:23:07.686Z,100215.91
2023-02-04T15:25:34.155Z,100224.16
2023-02-04T15:28:00.699Z,100208.19
2023-02-04T15:30:27.508Z,100214.00
2023-02-04T15:32:54.025Z,100214.84
2023-02-04T15:35:21.842Z,100217.47
2023-02-04T15:37:48.665Z,100212.94
2023-02-04T15:40:15.243Z,100219.03
2023-02-04T15:42:41.744Z,100220.63
2023-02-04T15:45:08.320Z,100213.81
2023-02-04T15:47:34.796Z,100210.16
2023-02-04T15:50:01.344Z,100206.84
2023-02-04T15:52:29.228Z,100221.97
2023-02-04T15:54:55.858Z,100223.09
2023-02-04T15:57:22.365Z,100232.16
2023-02-04T16:00:10.858Z,100231.97
2023-02-04T16:02:37.594Z,100228.59
2023-02-04T16:05:04.463Z,100227.69
2023-02-04T16:07:30.934Z,100227.84
2023-02-04T16:09:57.352Z,100225.25
2023-02-04T16:12:23.798Z,100229.78
2023-02-04T16:14:50.231Z,100234.59
2023-02-04T16:17:18.789Z,100240.31
2023-02-04T16:19:45.461Z,100249.44
2023-02-04T16:22:12.719Z,100250.84
2023-02-04T16:24:39.176Z,100249.69
2023-02-04T16:27:05.607Z,100236.34
2023-02-04T16:29:32.023Z,100246.47
2023-02-04T16:31:58.591Z,100238.91
2023-02-04T16:34:25.805Z,100248.31
2023-02-04T16:36:52.487Z,100249.25
2023-02-04T16:39:18.916Z,100253.59
2023-02-04T16:41:45.738Z,100255.03
2023-02-04T16:44:12.179Z,100244.00
2023-02-04T16:46:38.742Z,100246.31
2023-02-04T16:49:05.334Z,100253.78
2023-02-04T16:51:32.134Z,100247.88
2023-02-04T16:53:58.565Z,100260.25
2023-02-04T16:56:27.019Z,100252.47
2023-02-04T16:58:53.452Z,100256.19
2023-02-04T17:01:19.962Z,100248.91
2023-02-04T17:03:46.417Z,100241.69
2023-02-04T17:06:16.257Z,100244.50
2023-02-04T17:08:42.865Z,100262.25
2023-02-04T17:11:27.931Z,100260.59
2023-02-04T17:13:57.777Z,100262.25
2023-02-04T17:16:24.359Z,100264.00
2023-02-04T17:18:50.831Z,100260.41
2023-02-04T17:21:17.605Z,100267.84
2023-02-04T17:23:44.285Z,100271.69
2023-02-04T17:26:10.745Z,100267.91
2023-02-04T17:28:37.194Z,100268.66
2023-02-04T17:31:03.723Z,100279.72
2023-02-04T17:33:30.266Z,100285.59
2023-02-04T17:35:56.692Z,100294.75
2023-02-04T17:38:24.939Z,100285.44
2023-02-04T17:40:54.998Z,100286.75
2023-02-04T17:43:21.960Z,100279.56
2023-02-04T17:45:48.531Z,100276.00
2023-02-04T17:48:15.321Z,100274.47
2023-02-04T17:50:42.383Z,100274.59
2023-02-04T17:53:09.449Z,100274.00
2023-02-04T17:55:38.047Z,100261.34
2023-02-04T17:58:14.943Z,100278.34
2023-02-04T18:00:42.819Z,100267.81
2023-02-04T18:03:16.950Z,100264.19
2023-02-04T18:05:45.714Z,100266.75
2023-02-04T18:08:15.982Z,100270.06
2023-02-04T18:10:46.823Z,100269.00
2023-02-04T18:13:14.248Z,100269.06
2023-02-04T18:15:41.063Z,100279.28
2023-02-04T18:18:19.979Z,100276.69
2023-02-04T18:20:46.627Z,100276.03
2023-02-04T18:23:18.083Z,100271.97
2023-02-04T18:25:44.778Z,100267.75
2023-02-04T18:28:19.281Z,100266.53
2023-02-04T18:30:45.916Z,100265.78
2023-02-04T18:33:25.992Z,100263.63
2023-02-04T18:35:55.066Z,100262.97
2023-02-04T18:38:34.235Z,100275.41
2023-02-04T18:41:18.924Z,100275.63
2023-02-04T18:43:50.289Z,100272.28
2023-02-04T18:46:22.448Z,100266.53
2023-02-04T18:48:53.307Z,100266.78
2023-02-04T18:51:24.191Z,100265.13
2023-02-04T18:53:50.630Z,100275.09
2023-02-04T18:56:18.144Z,100285.97
2023-02-04T18:58:46.230Z,100277.25
2023-02-04T19:01:12.974Z,100279.53
2023-02-04T19:03:50.112Z,100278.84
2023-02-04T19:06:39.200Z,100274.44
2023-02-04T19:09:24.505Z,100275.75
2023-02-04T19:11:55.189Z,100277.31
2023-02-04T19:14:38.869Z,100289.22
2023-02-04T19:17:18.081Z,100292.78
2023-02-04T19:19:52.997Z,100302.75
2023-02-04T19:22:30.703Z,100296.34
2023-02-04T19:24:59.808Z,100294.88
2023-02-04T19:27:30.089Z,100302.41
2023-02-04T19:29:57.229Z,100306.22
2023-02-04T19:32:32.824Z,100309.91
2023-02-04T19:35:01.362Z,100309.06
2023-02-04T19:37:37.214Z,100306.22
2023-02-04T19:40:03.899Z,100315.91
2023-02-04T19:42:34.664Z,100316.31
2023-02-04T19:45:13.684Z,100296.56
2023-02-04T19:47:42.447Z,100291.78
2023-02-04T19:50:23.779Z,100290.13
2023-02-04T19:52:54.100Z,100291.28
2023-02-04T19:55:26.509Z,100301.47
2023-02-04T19:58:10.188Z,100300.88
2023-02-04T20:00:41.003Z,100293.94
2023-02-04T20:03:15.668Z,100289.16
2023-02-04T20:05:42.544Z,100298.69
2023-02-04T20:08:42.667Z,100298.75
2023-02-04T20:11:39.586Z,100295.69
2023-02-04T20:14:12.753Z,100298.69
2023-02-04T20:16:40.053Z,100297.75
2023-02-04T20:19:18.523Z,100301.56
2023-02-04T20:21:46.145Z,100305.38
2023-02-04T20:24:17.833Z,100299.66
2023-02-04T20:26:44.841Z,100305.88
2023-02-04T20:29:21.252Z,100306.56
2023-02-04T20:31:47.754Z,100299.06
2023-02-04T20:34:24.589Z,100305.63
2023-02-04T20:36:52.024Z,100299.91
2023-02-04T20:39:27.024Z,100289.94
2023-02-04T20:41:53.527Z,100291.09
2023-02-04T20:44:28.927Z,100295.41
2023-02-04T20:47:02.437Z,100295.09
2023-02-04T20:49:29.228Z,100293.69
2023-02-04T20:51:59.214Z,100292.13
2023-02-04T20:54:27.104Z,100298.81
2023-02-04T20:56:53.565Z,100298.63
2023-02-04T20:59:26.808Z,100302.72
2023-02-04T21:01:53.583Z,100290.06
2023-02-04T21:04:23.219Z,100289.63
2023-02-04T21:06:50.529Z,100286.06
2023-02-04T21:09:27.560Z,100287.91
2023-02-04T21:11:54.622Z,100277.88
2023-02-04T21:14:21.463Z,100271.69
2023-02-04T21:16:47.980Z,100267.53
2023-02-04T21:19:14.507Z,100270.03
2023-02-04T21:21:41.010Z,100261.72
2023-02-04T21:24:07.856Z,100258.91
2023-02-04T21:26:34.317Z,100249.88
2023-02-04T21:29:00.909Z,100245.81
2023-02-04T21:31:27.434Z,100265.78
2023-02-04T21:33:53.961Z,100257.00
2023-02-04T21:36:20.521Z,100265.19
2023-02-04T21:38:47.217Z,100263.06
2023-02-04T21:41:14.147Z,100261.69
2023-02-04T21:43:40.634Z,100266.69
2023-02-04T21:46:07.149Z,100270.38
2023-02-04T21:48:33.663Z,100269.91
2023-02-04T21:51:00.400Z,100262.94
2023-02-04T21:53:26.936Z,100268.66
2023-02-04T21:55:53.418Z,100262.22
2023-02-04T21:58:19.892Z,100258.66
2023-02-04T22:00:46.363Z,100271.81
2023-02-04T22:03:15.844Z,100260.63
2023-02-04T22:05:42.939Z,100268.53
2023-02-04T22:08:09.442Z,100266.84
2023-02-04T22:10:36.014Z,100257.72
2023-02-04T22:13:02.485Z,100260.31
2023-02-04T22:15:29.147Z,100258.31
2023-02-04T22:17:55.683Z,100249.75
2023-02-04T22:20:23.258Z,100247.88
2023-02-04T22:22:49.789Z,100249.78
2023-02-04T22:25:17.688Z,100248.84
2023-02-04T22:27:44.267Z,100252.16
2023-02-04T22:30:12.190Z,100258.38
2023-02-04T22:32:39.081Z,100256.72
2023-02-04T22:35:06.854Z,100252.00
2023-02-04T22:37:33.359Z,100256.13
2023-02-04T22:40:00.371Z,100251.28
2023-02-04T22:42:26.871Z,100252.81
2023-02-04T22:44:53.544Z,100245.69
2023-02-04T22:47:20.261Z,100242.72
2023-02-04T22:49:46.748Z,100236.31
2023-02-04T22:52:14.180Z,100230.88
2023-02-04T22:54:41.318Z,100226.56
2023-02-04T22:57:07.776Z,100223.72
2023-02-04T22:59:34.570Z,100230.34
2023-02-04T23:02:01.399Z,100230.22
2023-02-04T23:04:28.230Z,100222.13
2023-02-04T23:06:54.701Z,100229.41
2023-02-04T23:09:21.224Z,100219.41
2023-02-04T23:11:47.771Z,100218.72
2023-02-04T23:14:14.237Z,100210.66
2023-02-04T23:16:40.740Z,100212.94
2023-02-04T23:19:07.257Z,100211.50
2023-02-04T23:21:33.733Z,100211.38
2023-02-04T23:24:00.196Z,100216.13
2023-02-04T23:26:26.695Z,100217.66
2023-02-04T23:28:53.237Z,100224.53
2023-02-04T23:31:19.738Z,100226.81
2023-02-04T23:33:46.538Z,100227.03
2023-02-04T23:36:13.023Z,100234.16
2023-02-04T23:38:39.480Z,100236.50
2023-02-04T23:41:05.953Z,100224.25
2023-02-04T23:43:32.459Z,100217.59
2023-02-04T23:46:00.072Z,100218.56
2023-02-04T23:48:26.624Z,100222.50
2023-02-04T23:50:53.179Z,100221.66
2023-02-04T23:53:19.695Z,100222.00
2023-02-04T23:55:46.275Z,100214.03
2023-02-04T23:58:12.773Z,100209.19
